AirNav   Textron
 
 422 users online  

F23 Ranger Municipal Airport
Ranger, Texas, USA

GOING TO RANGER?


FAA INFORMATION EFFECTIVE 07 DECEMBER 2017

Location

FAA Identifier: F23
Lat/Long: 32-27-05.3100N / 098-40-53.4450W
32-27.088500N / 098-40.890750W
32.4514750 / -98.6815125
(estimated)
Elevation: 1470 ft. / 448 m (estimated)
Variation: 07E (1985)
From city: 2 miles S of RANGER, TX
Time zone: UTC -6 (UTC -5 during Daylight Saving Time)
Zip code: 76470

Airport Operations

Airport use: Open to the public
Activation date: 11/1938
Control tower: no
ARTCC: FORT WORTH CENTER
FSS: FORT WORTH FLIGHT SERVICE STATION
NOTAMs facility: FTW (NOTAM-D service available)
Attendance: DAYLIGHT HOURS
Wind indicator: yes
Segmented circle: no

Airport Communications

CTAF: 122.9
WX AWOS-3PT at ETN (7 nm W): 118.45 (254-631-0493)
WX AWOS-3PT at GZN (18 nm W): 118.0
WX AWOS-3 at BKD (19 nm NW): 120.175 (254-559-5525)

Nearby radio navigation aids

VOR radial/distance  VOR name  Freq  Var
BWDr015/36.3BROWNWOOD VOR/DME108.6008E
MQPr236/38.3MILLSAP VORTAC117.7009E

Airport Services

Parking: hangars and tiedowns

Runway Information

Runway 1/19

Dimensions: 3415 x 75 ft. / 1041 x 23 m
Surface: turf, in good condition
RUNWAY 1  RUNWAY 19
Latitude: 32-26.825667N32-27.351333N
Longitude: 098-41.010000W098-40.771500W
Elevation: 1457.0 ft.1469.0 ft.
Gradient: 0.4% UP
Traffic pattern: leftleft
Obstructions: 12 ft. trees, 53 ft. right of centerline5 ft. fence, 115 ft. left of centerline

Runway 18/36

Dimensions: 1850 x 80 ft. / 564 x 24 m
Surface: turf, in good condition
RUNWAY 18  RUNWAY 36
Traffic pattern: leftleft
Obstructions: 18 ft. bldg, 158 ft. from runway, 25 ft. right of centerline, 9:1 slope to clear23 ft. tree, 86 ft. from runway, 131 ft. right of centerline, 4:1 slope to clear

Airport Ownership and Management from official FAA records

Ownership: Publicly-owned
Owner: CITY OF RANGER
400 W. MAIN
RANGER, TX 76470
Phone 254-647-3522
Manager: CHARLES CALVERT
400 W MAIN
RANGER, TX 76470
Phone 254-647-3522
CITY ADMINISTRATOR.

Airport Operational Statistics

Aircraft based on the field: 9
Single engine airplanes: 6
Ultralights: 3
    
Aircraft operations: avg 23/week *
75% local general aviation
25% transient general aviation
* for 12-month period ending 06 November 2014

Additional Remarks

PEDESTRIAN TRAFFIC ON FLD AT TIMES.
RY 18 & RY 19 THLD MKD BY WHITE TIRES.
DEER ON & INVOF ARPT.

Instrument Procedures

There are no published instrument procedures at F23.

Some nearby airports with instrument procedures:

KETN - Eastland Municipal Airport (7 nm W)
KBKD - Stephens County Airport (19 nm NW)
KSEP - Stephenville Clark Regional Airport (29 nm SE)
F35 - Possum Kingdom Airport (31 nm NE)
KMKN - Comanche County-City Airport (32 nm S)
 
Loc | Ops | Rwys | IFR | FBO | Links
Com | Nav | Svcs | Stats | Notes


 
Area around F23 (Ranger Municipal Airport)
 
Road maps at: MapQuest Bing Google
 
Aerial photo
WARNING: Photo may not be current or correct
Aerial photo of F23 (Ranger Municipal Airport)
Do you have a better or more recent aerial photo of Ranger Municipal Airport that you would like to share? If so, please send us your photo.

 
Sectional chart

 
Airport distance calculator
Flying to Ranger Municipal Airport? Find the distance to fly.

From to F23

Sunrise and sunset
Times for 17-Dec-2017
 Local
(UTC-6)
 Zulu
(UTC)
Morning civil twilight07:0413:04
Sunrise07:3113:31
Sunset17:3123:31
Evening civil twilight17:5823:58

Current date and time
Zulu (UTC)  17-Dec-2017 06:38:13
Local (UTC-6)  17-Dec-2017 00:38:13
 
METAR
KETN 
7nm W 
170615Z AUTO 15012KT 5SM BR OVC006 06/05 A2996 RMK AO2 T00600053
KGZN 
18nm W 
170620Z AUTO 17012G18KT 8SM OVC005 07/06 A2996 RMK AO2
KBKD 
19nm NW 
170615Z AUTO 16007KT 10SM OVC012 08/06 A2995 RMK AO2 T00800055
TAF
NOTAMs
Click for the latest NOTAMs
NOTAMs are issued by the DoD/FAA and will open in a separate window not controlled by AirNav.

 

 
 

Would you like to see your business listed on this page?

 If your business provides an interesting product or service to pilots, flight crews, aircraft, or users of the Ranger Municipal Airport, you should consider listing it here.  To start the listing process, click on the button below
 
Add a business
 

Other Pages about Ranger Municipal Airport

www.myspace.com/rangerairfield
 
Update a link
 
Copyright © AirNav, LLC. All rights reserved. Privacy Policy  Contact